Tamarack, Idaho
Current Conditions -  °F | °C
As of 2:51 PM on Tuesday 25 Nov 2014 (Local Time) from KMYL Reporting Station
Light Rain Light Rain  
Wind Chill: 34°   Ceiling: 400
Heat Index: 34°   Visibility: 6mi
Dew Point: 33°   Wind: 3mph
Humidity: 96%   Direction: 50°NE
Pressure: 30.17"   Gusts: NA
Location:  44.7667°N, 116.117°W
Report Text: KMYL 252151Z AUTO 05003KT 6SM -RA BR OVC004 01/01 A3017 RMK AO2 SLP241 P0001 T00110006
Loading
Personal Weather Stations






























Interactive Weather Map New forecast layout! Learn more

10-Day Weather Forecast

Advertisements
Track Severe Weather on mobile